sensor_id;sensor_type;location;lat;lon;timestamp;P1;durP1;ratioP1;P2;durP2;ratioP2
78322;SDS011;67583;50.616;-3.404;2023-05-10T00:00:39;15.55;;;4.97;;
78322;SDS011;67583;50.616;-3.404;2023-05-10T00:03:04;11.85;;;2.90;;
78322;SDS011;67583;50.616;-3.404;2023-05-10T00:05:30;21.60;;;4.35;;
78322;SDS011;67583;50.616;-3.404;2023-05-10T00:07:56;18.75;;;4.70;;
78322;SDS011;67583;50.616;-3.404;2023-05-10T00:10:21;13.98;;;2.95;;
78322;SDS011;67583;50.616;-3.404;2023-05-10T00:12:47;13.15;;;3.25;;
78322;SDS011;67583;50.616;-3.404;2023-05-10T00:15:12;14.20;;;3.75;;
78322;SDS011;67583;50.616;-3.404;2023-05-10T00:17:38;10.60;;;3.22;;
78322;SDS011;67583;50.616;-3.404;2023-05-10T00:20:03;11.38;;;3.92;;
78322;SDS011;67583;50.616;-3.404;2023-05-10T00:22:30;13.00;;;3.00;;
78322;SDS011;67583;50.616;-3.404;2023-05-10T00:24:55;11.52;;;3.40;;
78322;SDS011;67583;50.616;-3.404;2023-05-10T00:27:21;15.95;;;3.97;;
78322;SDS011;67583;50.616;-3.404;2023-05-10T00:29:46;11.50;;;3.90;;
78322;SDS011;67583;50.616;-3.404;2023-05-10T00:32:12;10.52;;;3.08;;
78322;SDS011;67583;50.616;-3.404;2023-05-10T00:34:38;12.65;;;3.17;;
78322;SDS011;67583;50.616;-3.404;2023-05-10T00:37:04;12.80;;;3.03;;
78322;SDS011;67583;50.616;-3.404;2023-05-10T00:39:30;14.98;;;2.97;;
78322;SDS011;67583;50.616;-3.404;2023-05-10T00:41:55;14.63;;;3.15;;
78322;SDS011;67583;50.616;-3.404;2023-05-10T00:44:20;14.48;;;4.15;;
78322;SDS011;67583;50.616;-3.404;2023-05-10T00:46:46;9.63;;;2.88;;
78322;SDS011;67583;50.616;-3.404;2023-05-10T00:49:12;9.65;;;2.72;;
78322;SDS011;67583;50.616;-3.404;2023-05-10T00:51:37;9.63;;;2.83;;
78322;SDS011;67583;50.616;-3.404;2023-05-10T00:54:03;8.02;;;2.45;;
78322;SDS011;67583;50.616;-3.404;2023-05-10T00:56:28;11.40;;;3.10;;
78322;SDS011;67583;50.616;-3.404;2023-05-10T00:58:54;9.27;;;3.20;;
78322;SDS011;67583;50.616;-3.404;2023-05-10T01:01:20;15.00;;;3.58;;
78322;SDS011;67583;50.616;-3.404;2023-05-10T01:03:46;11.48;;;3.50;;
78322;SDS011;67583;50.616;-3.404;2023-05-10T01:06:12;9.40;;;2.72;;
78322;SDS011;67583;50.616;-3.404;2023-05-10T01:08:37;12.98;;;2.58;;
78322;SDS011;67583;50.616;-3.404;2023-05-10T01:11:03;14.35;;;2.92;;
78322;SDS011;67583;50.616;-3.404;2023-05-10T01:13:36;10.07;;;3.40;;
78322;SDS011;67583;50.616;-3.404;2023-05-10T01:16:03;12.93;;;3.28;;
78322;SDS011;67583;50.616;-3.404;2023-05-10T01:18:30;9.25;;;2.58;;
78322;SDS011;67583;50.616;-3.404;2023-05-10T01:21:22;13.80;;;2.33;;
78322;SDS011;67583;50.616;-3.404;2023-05-10T01:23:57;12.68;;;3.17;;
78322;SDS011;67583;50.616;-3.404;2023-05-10T01:29:47;12.15;;;2.85;;
78322;SDS011;67583;50.616;-3.404;2023-05-10T01:37:46;15.80;;;4.00;;
78322;SDS011;67583;50.616;-3.404;2023-05-10T01:40:23;22.23;;;5.20;;
78322;SDS011;67583;50.616;-3.404;2023-05-10T01:42:53;14.20;;;3.50;;
78322;SDS011;67583;50.616;-3.404;2023-05-10T01:45:41;21.08;;;4.95;;
78322;SDS011;67583;50.616;-3.404;2023-05-10T01:48:17;13.65;;;3.50;;
78322;SDS011;67583;50.616;-3.404;2023-05-10T01:50:43;15.63;;;3.40;;
78322;SDS011;67583;50.616;-3.404;2023-05-10T01:53:11;13.50;;;3.70;;
78322;SDS011;67583;50.616;-3.404;2023-05-10T01:55:50;16.25;;;4.18;;
78322;SDS011;67583;50.616;-3.404;2023-05-10T01:58:50;23.67;;;3.88;;
78322;SDS011;67583;50.616;-3.404;2023-05-10T02:01:10;30.88;;;4.22;;
78322;SDS011;67583;50.616;-3.404;2023-05-10T02:03:36;21.80;;;4.13;;
78322;SDS011;67583;50.616;-3.404;2023-05-10T02:06:03;15.52;;;3.40;;
78322;SDS011;67583;50.616;-3.404;2023-05-10T02:08:29;22.55;;;4.65;;
78322;SDS011;67583;50.616;-3.404;2023-05-10T02:10:55;19.80;;;3.63;;
78322;SDS011;67583;50.616;-3.404;2023-05-10T02:13:21;21.38;;;5.47;;
78322;SDS011;67583;50.616;-3.404;2023-05-10T02:15:49;22.42;;;3.83;;
78322;SDS011;67583;50.616;-3.404;2023-05-10T02:18:16;23.52;;;3.85;;
78322;SDS011;67583;50.616;-3.404;2023-05-10T02:20:43;26.17;;;5.05;;
78322;SDS011;67583;50.616;-3.404;2023-05-10T02:23:10;20.02;;;4.07;;
78322;SDS011;67583;50.616;-3.404;2023-05-10T02:25:36;24.45;;;4.40;;
78322;SDS011;67583;50.616;-3.404;2023-05-10T02:28:03;18.40;;;3.95;;
78322;SDS011;67583;50.616;-3.404;2023-05-10T02:30:31;20.20;;;4.50;;
78322;SDS011;67583;50.616;-3.404;2023-05-10T02:32:57;17.73;;;4.28;;
78322;SDS011;67583;50.616;-3.404;2023-05-10T02:35:24;20.33;;;4.07;;
78322;SDS011;67583;50.616;-3.404;2023-05-10T02:37:50;17.63;;;4.03;;
78322;SDS011;67583;50.616;-3.404;2023-05-10T02:40:16;19.27;;;4.00;;
78322;SDS011;67583;50.616;-3.404;2023-05-10T02:42:42;19.58;;;3.22;;
78322;SDS011;67583;50.616;-3.404;2023-05-10T02:45:11;17.50;;;3.60;;
78322;SDS011;67583;50.616;-3.404;2023-05-10T02:47:38;17.02;;;4.03;;
78322;SDS011;67583;50.616;-3.404;2023-05-10T02:50:03;25.83;;;5.13;;
78322;SDS011;67583;50.616;-3.404;2023-05-10T02:52:30;19.60;;;3.42;;
78322;SDS011;67583;50.616;-3.404;2023-05-10T02:55:02;17.42;;;3.83;;
78322;SDS011;67583;50.616;-3.404;2023-05-10T02:57:32;12.95;;;3.63;;
78322;SDS011;67583;50.616;-3.404;2023-05-10T02:59:58;23.02;;;3.90;;
78322;SDS011;67583;50.616;-3.404;2023-05-10T03:02:25;18.38;;;4.43;;
78322;SDS011;67583;50.616;-3.404;2023-05-10T03:04:51;22.08;;;5.10;;
78322;SDS011;67583;50.616;-3.404;2023-05-10T03:07:16;18.25;;;4.75;;
78322;SDS011;67583;50.616;-3.404;2023-05-10T03:09:44;15.15;;;3.15;;
78322;SDS011;67583;50.616;-3.404;2023-05-10T03:12:11;23.88;;;5.18;;
78322;SDS011;67583;50.616;-3.404;2023-05-10T03:17:29;24.40;;;5.75;;
78322;SDS011;67583;50.616;-3.404;2023-05-10T03:19:56;22.35;;;3.88;;
78322;SDS011;67583;50.616;-3.404;2023-05-10T03:22:24;21.48;;;4.13;;
78322;SDS011;67583;50.616;-3.404;2023-05-10T03:24:57;19.50;;;3.80;;
78322;SDS011;67583;50.616;-3.404;2023-05-10T03:27:23;27.30;;;6.05;;
78322;SDS011;67583;50.616;-3.404;2023-05-10T03:29:50;16.75;;;3.70;;
78322;SDS011;67583;50.616;-3.404;2023-05-10T03:32:16;21.48;;;4.00;;
78322;SDS011;67583;50.616;-3.404;2023-05-10T03:34:41;20.08;;;4.47;;
78322;SDS011;67583;50.616;-3.404;2023-05-10T03:37:08;20.92;;;3.45;;
78322;SDS011;67583;50.616;-3.404;2023-05-10T03:39:33;17.55;;;3.65;;
78322;SDS011;67583;50.616;-3.404;2023-05-10T03:41:59;14.02;;;3.83;;
78322;SDS011;67583;50.616;-3.404;2023-05-10T03:44:24;15.18;;;3.15;;
78322;SDS011;67583;50.616;-3.404;2023-05-10T03:46:50;14.77;;;3.90;;
78322;SDS011;67583;50.616;-3.404;2023-05-10T03:49:15;16.25;;;3.35;;
78322;SDS011;67583;50.616;-3.404;2023-05-10T03:51:40;10.25;;;2.47;;
78322;SDS011;67583;50.616;-3.404;2023-05-10T03:54:06;9.88;;;2.25;;
78322;SDS011;67583;50.616;-3.404;2023-05-10T03:56:31;16.65;;;2.85;;
78322;SDS011;67583;50.616;-3.404;2023-05-10T03:58:57;7.25;;;2.30;;
78322;SDS011;67583;50.616;-3.404;2023-05-10T04:01:22;15.68;;;3.05;;
78322;SDS011;67583;50.616;-3.404;2023-05-10T04:03:48;9.70;;;2.92;;
78322;SDS011;67583;50.616;-3.404;2023-05-10T04:06:13;11.65;;;3.85;;
78322;SDS011;67583;50.616;-3.404;2023-05-10T04:08:39;15.07;;;3.20;;
78322;SDS011;67583;50.616;-3.404;2023-05-10T04:11:08;10.50;;;2.50;;
78322;SDS011;67583;50.616;-3.404;2023-05-10T04:13:35;6.68;;;2.45;;
78322;SDS011;67583;50.616;-3.404;2023-05-10T04:16:01;12.60;;;3.22;;
78322;SDS011;67583;50.616;-3.404;2023-05-10T04:18:26;10.27;;;2.63;;
78322;SDS011;67583;50.616;-3.404;2023-05-10T04:20:51;16.38;;;3.50;;
78322;SDS011;67583;50.616;-3.404;2023-05-10T04:23:17;11.82;;;2.55;;
78322;SDS011;67583;50.616;-3.404;2023-05-10T04:25:42;9.85;;;2.88;;
78322;SDS011;67583;50.616;-3.404;2023-05-10T04:28:08;8.32;;;3.55;;
78322;SDS011;67583;50.616;-3.404;2023-05-10T04:30:33;9.52;;;2.20;;
78322;SDS011;67583;50.616;-3.404;2023-05-10T04:32:59;9.68;;;2.65;;
78322;SDS011;67583;50.616;-3.404;2023-05-10T04:35:26;11.73;;;2.55;;
78322;SDS011;67583;50.616;-3.404;2023-05-10T04:37:52;9.02;;;2.70;;
78322;SDS011;67583;50.616;-3.404;2023-05-10T04:40:17;11.50;;;3.15;;
78322;SDS011;67583;50.616;-3.404;2023-05-10T04:42:43;6.15;;;2.20;;
78322;SDS011;67583;50.616;-3.404;2023-05-10T04:45:08;12.95;;;2.80;;
78322;SDS011;67583;50.616;-3.404;2023-05-10T04:47:35;12.05;;;2.88;;
78322;SDS011;67583;50.616;-3.404;2023-05-10T04:50:02;10.68;;;2.35;;
78322;SDS011;67583;50.616;-3.404;2023-05-10T04:52:27;11.48;;;2.50;;
78322;SDS011;67583;50.616;-3.404;2023-05-10T04:54:54;9.02;;;2.67;;
78322;SDS011;67583;50.616;-3.404;2023-05-10T04:57:26;17.45;;;3.90;;
78322;SDS011;67583;50.616;-3.404;2023-05-10T04:59:51;15.18;;;3.70;;
78322;SDS011;67583;50.616;-3.404;2023-05-10T05:02:17;7.93;;;2.40;;
78322;SDS011;67583;50.616;-3.404;2023-05-10T05:04:42;10.70;;;3.15;;
78322;SDS011;67583;50.616;-3.404;2023-05-10T05:07:07;10.38;;;2.53;;
78322;SDS011;67583;50.616;-3.404;2023-05-10T05:09:33;9.77;;;2.50;;
78322;SDS011;67583;50.616;-3.404;2023-05-10T05:11:58;11.30;;;2.40;;
78322;SDS011;67583;50.616;-3.404;2023-05-10T05:14:24;11.05;;;2.70;;
78322;SDS011;67583;50.616;-3.404;2023-05-10T05:16:52;16.48;;;2.63;;
78322;SDS011;67583;50.616;-3.404;2023-05-10T05:19:18;8.88;;;2.63;;
78322;SDS011;67583;50.616;-3.404;2023-05-10T05:21:43;9.73;;;2.08;;
78322;SDS011;67583;50.616;-3.404;2023-05-10T05:24:08;7.85;;;2.13;;
78322;SDS011;67583;50.616;-3.404;2023-05-10T05:26:35;15.40;;;3.08;;
78322;SDS011;67583;50.616;-3.404;2023-05-10T05:29:03;8.82;;;3.05;;
78322;SDS011;67583;50.616;-3.404;2023-05-10T05:31:29;10.35;;;2.28;;
78322;SDS011;67583;50.616;-3.404;2023-05-10T05:33:54;8.23;;;2.40;;
78322;SDS011;67583;50.616;-3.404;2023-05-10T05:36:20;15.73;;;2.83;;
78322;SDS011;67583;50.616;-3.404;2023-05-10T05:38:45;6.22;;;2.17;;
78322;SDS011;67583;50.616;-3.404;2023-05-10T05:41:11;6.85;;;1.98;;
78322;SDS011;67583;50.616;-3.404;2023-05-10T05:43:37;8.25;;;1.88;;
78322;SDS011;67583;50.616;-3.404;2023-05-10T05:46:02;9.07;;;2.08;;
78322;SDS011;67583;50.616;-3.404;2023-05-10T05:48:29;10.15;;;2.33;;
78322;SDS011;67583;50.616;-3.404;2023-05-10T05:50:55;9.18;;;2.45;;
78322;SDS011;67583;50.616;-3.404;2023-05-10T05:53:21;9.85;;;2.72;;
78322;SDS011;67583;50.616;-3.404;2023-05-10T05:55:53;6.15;;;1.98;;
78322;SDS011;67583;50.616;-3.404;2023-05-10T05:58:19;7.20;;;2.40;;
78322;SDS011;67583;50.616;-3.404;2023-05-10T06:00:45;7.07;;;2.17;;
78322;SDS011;67583;50.616;-3.404;2023-05-10T06:03:10;5.53;;;1.98;;
78322;SDS011;67583;50.616;-3.404;2023-05-10T06:05:36;6.00;;;1.98;;
78322;SDS011;67583;50.616;-3.404;2023-05-10T06:08:02;7.05;;;2.17;;
78322;SDS011;67583;50.616;-3.404;2023-05-10T06:10:27;12.93;;;1.95;;
78322;SDS011;67583;50.616;-3.404;2023-05-10T06:12:52;14.43;;;2.33;;
78322;SDS011;67583;50.616;-3.404;2023-05-10T06:15:18;5.35;;;2.08;;
78322;SDS011;67583;50.616;-3.404;2023-05-10T06:17:43;13.10;;;2.50;;
78322;SDS011;67583;50.616;-3.404;2023-05-10T06:20:09;6.60;;;2.42;;
78322;SDS011;67583;50.616;-3.404;2023-05-10T06:22:35;8.60;;;2.85;;
78322;SDS011;67583;50.616;-3.404;2023-05-10T06:25:00;9.00;;;2.17;;
78322;SDS011;67583;50.616;-3.404;2023-05-10T06:27:26;9.00;;;2.55;;
78322;SDS011;67583;50.616;-3.404;2023-05-10T06:29:51;13.38;;;2.45;;
78322;SDS011;67583;50.616;-3.404;2023-05-10T06:32:16;6.47;;;2.30;;
78322;SDS011;67583;50.616;-3.404;2023-05-10T06:34:42;11.25;;;3.05;;
78322;SDS011;67583;50.616;-3.404;2023-05-10T06:37:08;12.90;;;2.65;;
78322;SDS011;67583;50.616;-3.404;2023-05-10T06:39:33;12.60;;;2.47;;
78322;SDS011;67583;50.616;-3.404;2023-05-10T06:41:59;11.85;;;3.33;;
78322;SDS011;67583;50.616;-3.404;2023-05-10T06:44:24;9.88;;;3.90;;
78322;SDS011;67583;50.616;-3.404;2023-05-10T06:46:50;11.32;;;3.00;;
78322;SDS011;67583;50.616;-3.404;2023-05-10T06:49:16;11.27;;;2.13;;
78322;SDS011;67583;50.616;-3.404;2023-05-10T06:51:41;14.45;;;2.70;;
78322;SDS011;67583;50.616;-3.404;2023-05-10T06:54:06;8.15;;;2.90;;
78322;SDS011;67583;50.616;-3.404;2023-05-10T06:56:32;8.02;;;2.50;;
78322;SDS011;67583;50.616;-3.404;2023-05-10T06:58:57;17.27;;;2.60;;
78322;SDS011;67583;50.616;-3.404;2023-05-10T07:01:22;17.40;;;2.83;;
78322;SDS011;67583;50.616;-3.404;2023-05-10T07:03:48;11.60;;;3.00;;
78322;SDS011;67583;50.616;-3.404;2023-05-10T07:06:13;13.02;;;2.50;;
78322;SDS011;67583;50.616;-3.404;2023-05-10T07:08:38;8.70;;;2.10;;
78322;SDS011;67583;50.616;-3.404;2023-05-10T07:11:04;10.15;;;2.75;;
78322;SDS011;67583;50.616;-3.404;2023-05-10T07:13:32;17.20;;;2.95;;
78322;SDS011;67583;50.616;-3.404;2023-05-10T07:15:58;14.93;;;2.72;;
78322;SDS011;67583;50.616;-3.404;2023-05-10T07:18:24;10.88;;;2.63;;
78322;SDS011;67583;50.616;-3.404;2023-05-10T07:20:50;11.10;;;2.15;;
78322;SDS011;67583;50.616;-3.404;2023-05-10T07:23:15;8.02;;;2.65;;
78322;SDS011;67583;50.616;-3.404;2023-05-10T07:25:44;14.27;;;2.65;;
78322;SDS011;67583;50.616;-3.404;2023-05-10T07:28:13;11.75;;;2.78;;
78322;SDS011;67583;50.616;-3.404;2023-05-10T07:30:39;11.82;;;2.30;;
78322;SDS011;67583;50.616;-3.404;2023-05-10T07:33:04;10.38;;;2.30;;
78322;SDS011;67583;50.616;-3.404;2023-05-10T07:35:29;14.38;;;2.22;;
78322;SDS011;67583;50.616;-3.404;2023-05-10T07:37:55;13.90;;;2.88;;
78322;SDS011;67583;50.616;-3.404;2023-05-10T07:40:21;12.93;;;3.00;;
78322;SDS011;67583;50.616;-3.404;2023-05-10T07:42:46;13.50;;;3.20;;
78322;SDS011;67583;50.616;-3.404;2023-05-10T07:45:11;16.10;;;3.35;;
78322;SDS011;67583;50.616;-3.404;2023-05-10T07:47:37;8.43;;;2.33;;
78322;SDS011;67583;50.616;-3.404;2023-05-10T07:50:02;12.93;;;2.92;;
78322;SDS011;67583;50.616;-3.404;2023-05-10T07:52:28;11.30;;;2.67;;
78322;SDS011;67583;50.616;-3.404;2023-05-10T07:54:54;10.93;;;2.53;;
78322;SDS011;67583;50.616;-3.404;2023-05-10T07:57:21;9.85;;;3.25;;
78322;SDS011;67583;50.616;-3.404;2023-05-10T07:59:47;12.05;;;3.17;;
78322;SDS011;67583;50.616;-3.404;2023-05-10T08:02:12;12.73;;;2.70;;
78322;SDS011;67583;50.616;-3.404;2023-05-10T08:04:38;12.25;;;2.40;;
78322;SDS011;67583;50.616;-3.404;2023-05-10T08:07:03;9.13;;;2.42;;
78322;SDS011;67583;50.616;-3.404;2023-05-10T08:09:28;10.60;;;3.00;;
78322;SDS011;67583;50.616;-3.404;2023-05-10T08:11:54;6.45;;;2.72;;
78322;SDS011;67583;50.616;-3.404;2023-05-10T08:14:20;9.40;;;3.15;;
78322;SDS011;67583;50.616;-3.404;2023-05-10T08:16:45;5.30;;;2.63;;
78322;SDS011;67583;50.616;-3.404;2023-05-10T08:19:12;11.85;;;2.92;;
78322;SDS011;67583;50.616;-3.404;2023-05-10T08:21:37;10.77;;;2.60;;
78322;SDS011;67583;50.616;-3.404;2023-05-10T08:24:03;7.25;;;2.00;;
78322;SDS011;67583;50.616;-3.404;2023-05-10T08:26:28;11.35;;;2.78;;
78322;SDS011;67583;50.616;-3.404;2023-05-10T08:28:54;9.35;;;2.58;;
78322;SDS011;67583;50.616;-3.404;2023-05-10T08:31:19;10.57;;;2.50;;
78322;SDS011;67583;50.616;-3.404;2023-05-10T08:33:44;10.48;;;2.70;;
78322;SDS011;67583;50.616;-3.404;2023-05-10T08:36:10;11.65;;;2.80;;
78322;SDS011;67583;50.616;-3.404;2023-05-10T08:38:36;7.35;;;2.55;;
78322;SDS011;67583;50.616;-3.404;2023-05-10T08:41:02;11.52;;;2.40;;
78322;SDS011;67583;50.616;-3.404;2023-05-10T08:43:28;8.07;;;2.20;;
78322;SDS011;67583;50.616;-3.404;2023-05-10T08:45:54;7.15;;;2.00;;
78322;SDS011;67583;50.616;-3.404;2023-05-10T08:48:24;6.28;;;1.98;;
78322;SDS011;67583;50.616;-3.404;2023-05-10T08:50:50;6.18;;;1.80;;
78322;SDS011;67583;50.616;-3.404;2023-05-10T08:53:17;5.40;;;1.98;;
78322;SDS011;67583;50.616;-3.404;2023-05-10T08:55:44;7.47;;;2.42;;
78322;SDS011;67583;50.616;-3.404;2023-05-10T08:58:09;8.35;;;1.95;;
78322;SDS011;67583;50.616;-3.404;2023-05-10T09:00:35;6.70;;;2.40;;
78322;SDS011;67583;50.616;-3.404;2023-05-10T09:03:02;8.65;;;1.80;;
78322;SDS011;67583;50.616;-3.404;2023-05-10T09:05:29;8.45;;;2.45;;
78322;SDS011;67583;50.616;-3.404;2023-05-10T09:07:54;5.72;;;1.70;;
78322;SDS011;67583;50.616;-3.404;2023-05-10T09:10:20;10.90;;;2.28;;
78322;SDS011;67583;50.616;-3.404;2023-05-10T09:12:45;10.98;;;2.30;;
78322;SDS011;67583;50.616;-3.404;2023-05-10T09:15:12;5.78;;;1.80;;
78322;SDS011;67583;50.616;-3.404;2023-05-10T09:17:40;8.25;;;1.88;;
78322;SDS011;67583;50.616;-3.404;2023-05-10T09:20:06;8.93;;;2.10;;
78322;SDS011;67583;50.616;-3.404;2023-05-10T09:22:32;4.47;;;1.90;;
78322;SDS011;67583;50.616;-3.404;2023-05-10T09:27:32;7.97;;;1.75;;
78322;SDS011;67583;50.616;-3.404;2023-05-10T09:29:58;12.52;;;2.33;;
78322;SDS011;67583;50.616;-3.404;2023-05-10T09:32:43;6.78;;;1.70;;
78322;SDS011;67583;50.616;-3.404;2023-05-10T09:35:13;6.82;;;1.77;;
78322;SDS011;67583;50.616;-3.404;2023-05-10T09:37:40;9.93;;;2.47;;
78322;SDS011;67583;50.616;-3.404;2023-05-10T09:40:07;7.18;;;2.03;;
78322;SDS011;67583;50.616;-3.404;2023-05-10T09:42:33;8.70;;;1.60;;
78322;SDS011;67583;50.616;-3.404;2023-05-10T09:45:01;9.70;;;2.03;;
78322;SDS011;67583;50.616;-3.404;2023-05-10T09:47:27;5.47;;;1.90;;
78322;SDS011;67583;50.616;-3.404;2023-05-10T09:49:52;8.35;;;2.63;;
78322;SDS011;67583;50.616;-3.404;2023-05-10T09:52:20;10.00;;;2.08;;
78322;SDS011;67583;50.616;-3.404;2023-05-10T09:54:52;5.85;;;1.90;;
78322;SDS011;67583;50.616;-3.404;2023-05-10T09:57:21;14.68;;;4.78;;
78322;SDS011;67583;50.616;-3.404;2023-05-10T09:59:48;14.45;;;2.90;;
78322;SDS011;67583;50.616;-3.404;2023-05-10T10:02:14;4.93;;;1.63;;
78322;SDS011;67583;50.616;-3.404;2023-05-10T10:04:40;4.47;;;1.55;;
78322;SDS011;67583;50.616;-3.404;2023-05-10T10:07:06;7.57;;;1.70;;
78322;SDS011;67583;50.616;-3.404;2023-05-10T10:09:31;7.70;;;1.90;;
78322;SDS011;67583;50.616;-3.404;2023-05-10T10:11:58;9.65;;;2.40;;
78322;SDS011;67583;50.616;-3.404;2023-05-10T10:14:24;5.07;;;1.80;;
78322;SDS011;67583;50.616;-3.404;2023-05-10T10:16:50;7.85;;;1.75;;
78322;SDS011;67583;50.616;-3.404;2023-05-10T10:19:16;8.73;;;1.90;;
78322;SDS011;67583;50.616;-3.404;2023-05-10T10:21:43;8.52;;;1.90;;
78322;SDS011;67583;50.616;-3.404;2023-05-10T10:24:08;6.55;;;1.73;;
78322;SDS011;67583;50.616;-3.404;2023-05-10T10:26:34;5.80;;;1.88;;
78322;SDS011;67583;50.616;-3.404;2023-05-10T10:32:06;4.85;;;1.65;;
78322;SDS011;67583;50.616;-3.404;2023-05-10T10:37:05;6.03;;;2.20;;
78322;SDS011;67583;50.616;-3.404;2023-05-10T10:39:31;5.15;;;1.45;;
78322;SDS011;67583;50.616;-3.404;2023-05-10T10:41:57;8.55;;;2.60;;
78322;SDS011;67583;50.616;-3.404;2023-05-10T10:50:03;3.78;;;1.67;;
78322;SDS011;67583;50.616;-3.404;2023-05-10T10:52:30;7.47;;;1.75;;
78322;SDS011;67583;50.616;-3.404;2023-05-10T10:54:59;5.38;;;1.90;;
78322;SDS011;67583;50.616;-3.404;2023-05-10T11:02:47;5.57;;;1.85;;
78322;SDS011;67583;50.616;-3.404;2023-05-10T11:07:58;6.18;;;2.38;;
78322;SDS011;67583;50.616;-3.404;2023-05-10T11:10:24;4.00;;;1.38;;
78322;SDS011;67583;50.616;-3.404;2023-05-10T11:13:00;4.35;;;1.30;;
78322;SDS011;67583;50.616;-3.404;2023-05-10T11:15:29;4.93;;;2.22;;
78322;SDS011;67583;50.616;-3.404;2023-05-10T11:17:58;5.50;;;1.65;;
78322;SDS011;67583;50.616;-3.404;2023-05-10T11:20:23;5.75;;;2.30;;
78322;SDS011;67583;50.616;-3.404;2023-05-10T11:22:58;4.80;;;1.60;;
78322;SDS011;67583;50.616;-3.404;2023-05-10T11:25:26;7.28;;;1.92;;
78322;SDS011;67583;50.616;-3.404;2023-05-10T11:27:51;4.07;;;1.70;;
78322;SDS011;67583;50.616;-3.404;2023-05-10T11:30:17;5.63;;;1.30;;
78322;SDS011;67583;50.616;-3.404;2023-05-10T11:32:42;4.88;;;1.67;;
78322;SDS011;67583;50.616;-3.404;2023-05-10T11:35:09;2.22;;;1.05;;
78322;SDS011;67583;50.616;-3.404;2023-05-10T11:37:35;5.10;;;1.38;;
78322;SDS011;67583;50.616;-3.404;2023-05-10T11:40:01;3.58;;;1.50;;
78322;SDS011;67583;50.616;-3.404;2023-05-10T11:42:27;13.93;;;2.25;;
78322;SDS011;67583;50.616;-3.404;2023-05-10T11:44:53;5.80;;;1.40;;
78322;SDS011;67583;50.616;-3.404;2023-05-10T11:47:18;4.65;;;2.00;;
78322;SDS011;67583;50.616;-3.404;2023-05-10T11:49:44;6.88;;;1.70;;
78322;SDS011;67583;50.616;-3.404;2023-05-10T11:52:09;5.43;;;1.95;;
78322;SDS011;67583;50.616;-3.404;2023-05-10T11:54:36;4.43;;;1.55;;
78322;SDS011;67583;50.616;-3.404;2023-05-10T11:57:02;3.92;;;1.73;;
78322;SDS011;67583;50.616;-3.404;2023-05-10T11:59:27;8.98;;;1.88;;
78322;SDS011;67583;50.616;-3.404;2023-05-10T12:01:53;3.13;;;1.40;;
78322;SDS011;67583;50.616;-3.404;2023-05-10T12:04:18;6.22;;;1.77;;
78322;SDS011;67583;50.616;-3.404;2023-05-10T12:06:44;7.00;;;1.50;;
78322;SDS011;67583;50.616;-3.404;2023-05-10T12:09:11;7.40;;;1.63;;
78322;SDS011;67583;50.616;-3.404;2023-05-10T12:11:37;8.05;;;2.03;;
78322;SDS011;67583;50.616;-3.404;2023-05-10T12:14:08;5.47;;;1.75;;
78322;SDS011;67583;50.616;-3.404;2023-05-10T12:16:33;6.03;;;1.67;;
78322;SDS011;67583;50.616;-3.404;2023-05-10T12:18:59;3.67;;;1.35;;
78322;SDS011;67583;50.616;-3.404;2023-05-10T12:21:25;7.72;;;1.88;;
78322;SDS011;67583;50.616;-3.404;2023-05-10T12:23:53;5.07;;;1.50;;
78322;SDS011;67583;50.616;-3.404;2023-05-10T12:26:25;5.88;;;1.50;;
78322;SDS011;67583;50.616;-3.404;2023-05-10T12:28:52;6.72;;;2.20;;
78322;SDS011;67583;50.616;-3.404;2023-05-10T12:31:25;3.58;;;1.60;;
78322;SDS011;67583;50.616;-3.404;2023-05-10T12:33:51;8.32;;;1.52;;
78322;SDS011;67583;50.616;-3.404;2023-05-10T12:36:17;7.55;;;1.90;;
78322;SDS011;67583;50.616;-3.404;2023-05-10T12:38:48;4.85;;;1.60;;
78322;SDS011;67583;50.616;-3.404;2023-05-10T12:41:16;5.22;;;1.73;;
78322;SDS011;67583;50.616;-3.404;2023-05-10T12:43:42;4.78;;;1.38;;
78322;SDS011;67583;50.616;-3.404;2023-05-10T12:46:08;3.10;;;1.40;;
78322;SDS011;67583;50.616;-3.404;2023-05-10T12:48:35;4.80;;;1.63;;
78322;SDS011;67583;50.616;-3.404;2023-05-10T12:51:02;4.10;;;1.58;;
78322;SDS011;67583;50.616;-3.404;2023-05-10T12:53:27;4.13;;;1.20;;
78322;SDS011;67583;50.616;-3.404;2023-05-10T12:55:53;5.80;;;1.55;;
78322;SDS011;67583;50.616;-3.404;2023-05-10T12:58:19;5.32;;;1.13;;
78322;SDS011;67583;50.616;-3.404;2023-05-10T13:00:44;5.30;;;1.45;;
78322;SDS011;67583;50.616;-3.404;2023-05-10T13:03:10;3.53;;;1.73;;
78322;SDS011;67583;50.616;-3.404;2023-05-10T13:05:35;3.25;;;1.40;;
78322;SDS011;67583;50.616;-3.404;2023-05-10T13:08:01;3.08;;;1.33;;
78322;SDS011;67583;50.616;-3.404;2023-05-10T13:10:28;4.63;;;1.30;;
78322;SDS011;67583;50.616;-3.404;2023-05-10T13:12:54;4.10;;;1.40;;
78322;SDS011;67583;50.616;-3.404;2023-05-10T13:15:20;2.50;;;1.30;;
78322;SDS011;67583;50.616;-3.404;2023-05-10T13:17:45;3.70;;;1.00;;
78322;SDS011;67583;50.616;-3.404;2023-05-10T13:20:11;2.15;;;1.17;;
78322;SDS011;67583;50.616;-3.404;2023-05-10T13:22:36;3.17;;;1.40;;
78322;SDS011;67583;50.616;-3.404;2023-05-10T13:25:02;2.53;;;1.23;;
78322;SDS011;67583;50.616;-3.404;2023-05-10T13:27:27;3.80;;;1.30;;
78322;SDS011;67583;50.616;-3.404;2023-05-10T13:29:53;4.07;;;1.25;;
78322;SDS011;67583;50.616;-3.404;2023-05-10T13:32:19;6.30;;;1.45;;
78322;SDS011;67583;50.616;-3.404;2023-05-10T13:34:45;1.98;;;1.05;;
78322;SDS011;67583;50.616;-3.404;2023-05-10T13:37:10;5.47;;;1.38;;
78322;SDS011;67583;50.616;-3.404;2023-05-10T13:39:36;5.82;;;1.70;;
78322;SDS011;67583;50.616;-3.404;2023-05-10T13:42:02;3.58;;;1.45;;
78322;SDS011;67583;50.616;-3.404;2023-05-10T13:44:28;2.85;;;1.13;;
78322;SDS011;67583;50.616;-3.404;2023-05-10T13:46:54;3.58;;;1.13;;
78322;SDS011;67583;50.616;-3.404;2023-05-10T13:49:20;3.70;;;1.27;;
78322;SDS011;67583;50.616;-3.404;2023-05-10T13:51:46;3.88;;;1.48;;
78322;SDS011;67583;50.616;-3.404;2023-05-10T13:54:11;3.58;;;1.23;;
78322;SDS011;67583;50.616;-3.404;2023-05-10T13:56:37;4.70;;;1.27;;
78322;SDS011;67583;50.616;-3.404;2023-05-10T13:59:02;3.17;;;1.40;;
78322;SDS011;67583;50.616;-3.404;2023-05-10T14:01:28;1.75;;;1.08;;
78322;SDS011;67583;50.616;-3.404;2023-05-10T14:03:53;4.40;;;1.63;;
78322;SDS011;67583;50.616;-3.404;2023-05-10T14:06:18;5.85;;;1.23;;
78322;SDS011;67583;50.616;-3.404;2023-05-10T14:08:44;3.60;;;1.30;;
78322;SDS011;67583;50.616;-3.404;2023-05-10T14:11:09;3.88;;;1.42;;
78322;SDS011;67583;50.616;-3.404;2023-05-10T14:13:35;5.05;;;1.45;;
78322;SDS011;67583;50.616;-3.404;2023-05-10T14:16:00;2.58;;;1.30;;
78322;SDS011;67583;50.616;-3.404;2023-05-10T14:18:28;2.80;;;1.30;;
78322;SDS011;67583;50.616;-3.404;2023-05-10T14:20:54;6.22;;;1.33;;
78322;SDS011;67583;50.616;-3.404;2023-05-10T14:23:21;5.07;;;1.50;;
78322;SDS011;67583;50.616;-3.404;2023-05-10T14:25:49;4.13;;;1.27;;
78322;SDS011;67583;50.616;-3.404;2023-05-10T14:28:15;2.85;;;1.17;;
78322;SDS011;67583;50.616;-3.404;2023-05-10T14:30:42;3.40;;;1.30;;
78322;SDS011;67583;50.616;-3.404;2023-05-10T14:33:07;2.38;;;1.02;;
78322;SDS011;67583;50.616;-3.404;2023-05-10T14:35:32;1.77;;;1.20;;
78322;SDS011;67583;50.616;-3.404;2023-05-10T14:37:58;4.60;;;1.67;;
78322;SDS011;67583;50.616;-3.404;2023-05-10T14:40:23;4.10;;;1.20;;
78322;SDS011;67583;50.616;-3.404;2023-05-10T14:42:49;2.42;;;1.25;;
78322;SDS011;67583;50.616;-3.404;2023-05-10T14:45:15;3.83;;;1.20;;
78322;SDS011;67583;50.616;-3.404;2023-05-10T14:47:40;6.18;;;2.55;;
78322;SDS011;67583;50.616;-3.404;2023-05-10T14:50:06;2.47;;;1.17;;
78322;SDS011;67583;50.616;-3.404;2023-05-10T14:52:32;3.42;;;1.85;;
78322;SDS011;67583;50.616;-3.404;2023-05-10T14:54:57;3.15;;;1.30;;
78322;SDS011;67583;50.616;-3.404;2023-05-10T14:57:24;3.97;;;1.35;;